sensor_id;sensor_type;location;lat;lon;timestamp;pressure;altitude;pressure_sealevel;temperature;humidity
6395;BME280;3230;42.588;23.358;2023-04-28T00:02:15;91171.13;;;4.05;70.69
6395;BME280;3230;42.588;23.358;2023-04-28T00:04:41;91165.00;;;3.82;71.60
6395;BME280;3230;42.588;23.358;2023-04-28T00:07:06;91169.53;;;3.75;72.81
6395;BME280;3230;42.588;23.358;2023-04-28T00:09:31;91172.00;;;3.70;72.45
6395;BME280;3230;42.588;23.358;2023-04-28T00:11:57;91164.91;;;3.65;73.48
6395;BME280;3230;42.588;23.358;2023-04-28T00:14:24;91171.66;;;3.66;73.15
6395;BME280;3230;42.588;23.358;2023-04-28T00:16:49;91174.72;;;3.63;73.50
6395;BME280;3230;42.588;23.358;2023-04-28T00:19:15;91169.84;;;3.79;72.74
6395;BME280;3230;42.588;23.358;2023-04-28T00:21:40;91170.44;;;3.69;73.83
6395;BME280;3230;42.588;23.358;2023-04-28T00:24:06;91168.53;;;3.64;72.25
6395;BME280;3230;42.588;23.358;2023-04-28T00:26:31;91168.19;;;3.61;73.68
6395;BME280;3230;42.588;23.358;2023-04-28T00:28:57;91170.22;;;3.59;73.97
6395;BME280;3230;42.588;23.358;2023-04-28T00:31:22;91173.38;;;3.61;73.67
6395;BME280;3230;42.588;23.358;2023-04-28T00:33:47;91167.72;;;3.64;73.45
6395;BME280;3230;42.588;23.358;2023-04-28T00:36:13;91167.19;;;3.62;74.37
6395;BME280;3230;42.588;23.358;2023-04-28T00:38:38;91175.50;;;3.64;74.36
6395;BME280;3230;42.588;23.358;2023-04-28T00:41:04;91174.03;;;3.68;73.41
6395;BME280;3230;42.588;23.358;2023-04-28T00:43:29;91166.72;;;3.65;74.07
6395;BME280;3230;42.588;23.358;2023-04-28T00:45:55;91172.22;;;3.57;73.43
6395;BME280;3230;42.588;23.358;2023-04-28T00:48:20;91170.00;;;3.48;73.64
6395;BME280;3230;42.588;23.358;2023-04-28T00:50:49;91165.72;;;3.42;74.60
6395;BME280;3230;42.588;23.358;2023-04-28T00:53:14;91170.56;;;3.50;73.82
6395;BME280;3230;42.588;23.358;2023-04-28T00:55:40;91170.00;;;3.48;73.96
6395;BME280;3230;42.588;23.358;2023-04-28T00:58:06;91170.00;;;3.36;73.49
6395;BME280;3230;42.588;23.358;2023-04-28T01:00:33;91170.34;;;3.28;74.60
6395;BME280;3230;42.588;23.358;2023-04-28T01:02:58;91179.78;;;3.23;75.21
6395;BME280;3230;42.588;23.358;2023-04-28T01:05:24;91177.09;;;3.29;75.14
6395;BME280;3230;42.588;23.358;2023-04-28T01:07:51;91180.38;;;3.25;75.29
6395;BME280;3230;42.588;23.358;2023-04-28T01:10:16;91183.75;;;3.13;75.33
6395;BME280;3230;42.588;23.358;2023-04-28T01:12:41;91176.31;;;3.05;76.43
6395;BME280;3230;42.588;23.358;2023-04-28T01:15:14;91177.88;;;3.06;75.66
6395;BME280;3230;42.588;23.358;2023-04-28T01:17:40;91179.22;;;2.97;76.18
6395;BME280;3230;42.588;23.358;2023-04-28T01:20:06;91181.13;;;2.90;76.75
6395;BME280;3230;42.588;23.358;2023-04-28T01:22:32;91181.81;;;2.97;76.30
6395;BME280;3230;42.588;23.358;2023-04-28T01:24:57;91179.41;;;2.83;76.98
6395;BME280;3230;42.588;23.358;2023-04-28T01:27:24;91181.22;;;2.83;77.03
6395;BME280;3230;42.588;23.358;2023-04-28T01:29:49;91179.66;;;2.82;77.25
6395;BME280;3230;42.588;23.358;2023-04-28T01:32:15;91182.44;;;2.68;77.27
6395;BME280;3230;42.588;23.358;2023-04-28T01:34:40;91186.81;;;2.68;76.74
6395;BME280;3230;42.588;23.358;2023-04-28T01:37:06;91185.13;;;2.74;77.18
6395;BME280;3230;42.588;23.358;2023-04-28T01:39:31;91183.91;;;2.76;75.30
6395;BME280;3230;42.588;23.358;2023-04-28T01:41:57;91184.56;;;2.71;76.41
6395;BME280;3230;42.588;23.358;2023-04-28T01:44:22;91183.22;;;2.69;75.86
6395;BME280;3230;42.588;23.358;2023-04-28T01:46:47;91187.69;;;2.62;76.20
6395;BME280;3230;42.588;23.358;2023-04-28T01:49:13;91190.16;;;2.56;76.10
6395;BME280;3230;42.588;23.358;2023-04-28T01:51:38;91177.81;;;2.59;76.06
6395;BME280;3230;42.588;23.358;2023-04-28T01:54:04;91181.41;;;2.58;75.99
6395;BME280;3230;42.588;23.358;2023-04-28T01:56:30;91187.69;;;2.62;75.67
6395;BME280;3230;42.588;23.358;2023-04-28T01:58:56;91182.16;;;2.58;75.92
6395;BME280;3230;42.588;23.358;2023-04-28T02:01:21;91185.56;;;2.59;76.12
6395;BME280;3230;42.588;23.358;2023-04-28T02:03:46;91180.97;;;2.61;76.24
6395;BME280;3230;42.588;23.358;2023-04-28T02:06:13;91183.63;;;2.54;76.76
6395;BME280;3230;42.588;23.358;2023-04-28T02:08:38;91187.00;;;2.54;76.92
6395;BME280;3230;42.588;23.358;2023-04-28T02:11:04;91186.44;;;2.52;76.91
6395;BME280;3230;42.588;23.358;2023-04-28T02:13:29;91169.53;;;2.38;77.17
6395;BME280;3230;42.588;23.358;2023-04-28T02:15:55;91188.34;;;2.45;77.03
6395;BME280;3230;42.588;23.358;2023-04-28T02:18:20;91192.44;;;2.34;78.22
6395;BME280;3230;42.588;23.358;2023-04-28T02:20:46;91195.81;;;2.35;78.32
6395;BME280;3230;42.588;23.358;2023-04-28T02:23:11;91197.69;;;2.28;78.40
6395;BME280;3230;42.588;23.358;2023-04-28T02:25:36;91196.16;;;2.27;79.40
6395;BME280;3230;42.588;23.358;2023-04-28T02:28:02;91200.88;;;2.30;79.37
6395;BME280;3230;42.588;23.358;2023-04-28T02:30:28;91201.38;;;2.20;79.44
6395;BME280;3230;42.588;23.358;2023-04-28T02:32:53;91197.44;;;2.17;79.53
6395;BME280;3230;42.588;23.358;2023-04-28T02:35:18;91195.56;;;2.24;79.01
6395;BME280;3230;42.588;23.358;2023-04-28T02:37:44;91202.84;;;2.16;79.60
6395;BME280;3230;42.588;23.358;2023-04-28T02:40:10;91204.50;;;2.10;80.34
6395;BME280;3230;42.588;23.358;2023-04-28T02:42:36;91209.78;;;2.15;80.04
6395;BME280;3230;42.588;23.358;2023-04-28T02:45:01;91212.81;;;2.12;80.83
6395;BME280;3230;42.588;23.358;2023-04-28T02:47:27;91211.13;;;2.06;80.20
6395;BME280;3230;42.588;23.358;2023-04-28T02:49:52;91216.78;;;2.15;80.18
6395;BME280;3230;42.588;23.358;2023-04-28T02:52:18;91199.06;;;2.00;79.04
6395;BME280;3230;42.588;23.358;2023-04-28T02:54:43;91218.34;;;2.16;79.20
6395;BME280;3230;42.588;23.358;2023-04-28T02:57:12;91218.19;;;2.11;79.63
6395;BME280;3230;42.588;23.358;2023-04-28T02:59:38;91213.91;;;2.04;79.62
6395;BME280;3230;42.588;23.358;2023-04-28T03:02:03;91221.34;;;2.13;79.40
6395;BME280;3230;42.588;23.358;2023-04-28T03:04:28;91218.13;;;2.17;78.80
6395;BME280;3230;42.588;23.358;2023-04-28T03:06:54;91222.72;;;2.15;78.44
6395;BME280;3230;42.588;23.358;2023-04-28T03:09:19;91228.88;;;2.14;78.30
6395;BME280;3230;42.588;23.358;2023-04-28T03:11:45;91231.69;;;2.13;78.55
6395;BME280;3230;42.588;23.358;2023-04-28T03:14:10;91228.88;;;2.14;78.10
6395;BME280;3230;42.588;23.358;2023-04-28T03:16:37;91232.28;;;2.15;77.68
6395;BME280;3230;42.588;23.358;2023-04-28T03:19:02;91219.47;;;2.20;76.84
6395;BME280;3230;42.588;23.358;2023-04-28T03:21:27;91229.06;;;2.19;77.36
6395;BME280;3230;42.588;23.358;2023-04-28T03:23:54;91236.44;;;2.16;77.26
6395;BME280;3230;42.588;23.358;2023-04-28T03:26:19;91236.28;;;2.11;77.66
6395;BME280;3230;42.588;23.358;2023-04-28T03:28:45;91242.84;;;2.13;77.32
6395;BME280;3230;42.588;23.358;2023-04-28T03:31:10;91240.09;;;2.08;78.18
6395;BME280;3230;42.588;23.358;2023-04-28T03:33:36;91245.28;;;2.08;78.10
6395;BME280;3230;42.588;23.358;2023-04-28T03:36:01;91253.31;;;2.18;77.52
6395;BME280;3230;42.588;23.358;2023-04-28T03:38:26;91254.31;;;2.17;77.20
6395;BME280;3230;42.588;23.358;2023-04-28T03:40:52;91252.69;;;2.23;76.81
6395;BME280;3230;42.588;23.358;2023-04-28T03:43:17;91262.56;;;2.26;77.06
6395;BME280;3230;42.588;23.358;2023-04-28T03:45:43;91259.34;;;2.31;77.92
6395;BME280;3230;42.588;23.358;2023-04-28T03:48:08;91260.41;;;2.42;79.07
6395;BME280;3230;42.588;23.358;2023-04-28T03:50:34;91268.88;;;2.49;79.36
6395;BME280;3230;42.588;23.358;2023-04-28T03:52:59;91268.81;;;2.98;77.22
6395;BME280;3230;42.588;23.358;2023-04-28T03:55:25;91270.88;;;3.19;75.54
6395;BME280;3230;42.588;23.358;2023-04-28T03:57:51;91280.09;;;3.15;73.80
6395;BME280;3230;42.588;23.358;2023-04-28T04:00:16;91274.75;;;3.52;73.47
6395;BME280;3230;42.588;23.358;2023-04-28T04:02:42;91269.56;;;4.00;73.59
6395;BME280;3230;42.588;23.358;2023-04-28T04:05:07;91283.38;;;4.41;73.47
6395;BME280;3230;42.588;23.358;2023-04-28T04:07:33;91285.97;;;5.28;70.21
6395;BME280;3230;42.588;23.358;2023-04-28T04:09:58;91290.84;;;5.92;67.29
6395;BME280;3230;42.588;23.358;2023-04-28T04:12:23;91291.22;;;5.16;69.15
6395;BME280;3230;42.588;23.358;2023-04-28T04:14:49;91299.16;;;5.09;70.94
6395;BME280;3230;42.588;23.358;2023-04-28T04:17:14;91293.47;;;5.12;70.85
6395;BME280;3230;42.588;23.358;2023-04-28T04:19:40;91297.84;;;5.24;70.87
6395;BME280;3230;42.588;23.358;2023-04-28T04:22:05;91301.59;;;5.16;71.42
6395;BME280;3230;42.588;23.358;2023-04-28T04:24:31;91303.09;;;4.83;70.35
6395;BME280;3230;42.588;23.358;2023-04-28T04:26:56;91302.31;;;4.83;68.46
6395;BME280;3230;42.588;23.358;2023-04-28T04:29:21;91308.94;;;5.99;64.42
6395;BME280;3230;42.588;23.358;2023-04-28T04:31:47;91306.94;;;9.26;49.47
6395;BME280;3230;42.588;23.358;2023-04-28T04:34:13;91319.72;;;11.48;42.51
6395;BME280;3230;42.588;23.358;2023-04-28T04:36:39;91317.09;;;10.93;42.35
6395;BME280;3230;42.588;23.358;2023-04-28T04:39:04;91319.31;;;12.69;39.97
6395;BME280;3230;42.588;23.358;2023-04-28T04:41:29;91321.16;;;13.80;37.42
6395;BME280;3230;42.588;23.358;2023-04-28T04:43:55;91317.41;;;13.23;38.12
6395;BME280;3230;42.588;23.358;2023-04-28T04:46:20;91326.22;;;14.28;37.19
6395;BME280;3230;42.588;23.358;2023-04-28T04:48:46;91327.94;;;17.80;31.63
6395;BME280;3230;42.588;23.358;2023-04-28T04:51:12;91330.56;;;19.33;28.02
6395;BME280;3230;42.588;23.358;2023-04-28T04:53:37;91341.09;;;20.86;25.51
6395;BME280;3230;42.588;23.358;2023-04-28T04:56:03;91330.78;;;18.45;28.90
6395;BME280;3230;42.588;23.358;2023-04-28T04:58:29;91338.31;;;19.47;27.96
6395;BME280;3230;42.588;23.358;2023-04-28T05:00:54;91347.53;;;21.56;24.99
6395;BME280;3230;42.588;23.358;2023-04-28T05:03:20;91344.84;;;20.73;25.74
6395;BME280;3230;42.588;23.358;2023-04-28T05:05:46;91341.91;;;20.66;25.58
6395;BME280;3230;42.588;23.358;2023-04-28T05:08:13;91347.66;;;22.38;22.62
6395;BME280;3230;42.588;23.358;2023-04-28T05:10:38;91345.34;;;21.00;23.83
6395;BME280;3230;42.588;23.358;2023-04-28T05:13:04;91340.63;;;21.43;24.38
6395;BME280;3230;42.588;23.358;2023-04-28T05:15:29;91342.25;;;21.10;24.33
6395;BME280;3230;42.588;23.358;2023-04-28T05:17:55;91344.16;;;21.09;24.73
6395;BME280;3230;42.588;23.358;2023-04-28T05:20:21;91346.56;;;21.02;24.33
6395;BME280;3230;42.588;23.358;2023-04-28T05:22:46;91346.72;;;20.30;23.41
6395;BME280;3230;42.588;23.358;2023-04-28T05:25:12;91337.72;;;20.01;25.32
6395;BME280;3230;42.588;23.358;2023-04-28T05:27:37;91336.66;;;19.93;25.12
6395;BME280;3230;42.588;23.358;2023-04-28T05:30:08;91337.06;;;20.25;24.94
6395;BME280;3230;42.588;23.358;2023-04-28T05:32:35;91324.59;;;18.97;25.80
6395;BME280;3230;42.588;23.358;2023-04-28T05:35:01;91331.41;;;18.60;25.87
6395;BME280;3230;42.588;23.358;2023-04-28T05:37:26;91333.59;;;19.53;26.34
6395;BME280;3230;42.588;23.358;2023-04-28T05:39:52;91320.34;;;18.31;25.99
6395;BME280;3230;42.588;23.358;2023-04-28T05:42:17;91327.78;;;19.89;24.89
6395;BME280;3230;42.588;23.358;2023-04-28T05:44:43;91331.00;;;19.35;25.18
6395;BME280;3230;42.588;23.358;2023-04-28T05:47:08;91328.06;;;18.80;26.32
6395;BME280;3230;42.588;23.358;2023-04-28T05:49:34;91335.28;;;18.45;26.21
6395;BME280;3230;42.588;23.358;2023-04-28T05:51:59;91323.84;;;18.79;25.94
6395;BME280;3230;42.588;23.358;2023-04-28T05:54:25;91334.16;;;19.67;25.71
6395;BME280;3230;42.588;23.358;2023-04-28T05:56:52;91336.44;;;19.47;27.22
6395;BME280;3230;42.588;23.358;2023-04-28T05:59:17;91330.56;;;19.93;24.66
6395;BME280;3230;42.588;23.358;2023-04-28T06:01:43;91343.53;;;20.58;23.96
6395;BME280;3230;42.588;23.358;2023-04-28T06:04:09;91335.06;;;21.35;24.17
6395;BME280;3230;42.588;23.358;2023-04-28T06:06:34;91345.63;;;20.52;24.35
6395;BME280;3230;42.588;23.358;2023-04-28T06:09:01;91340.44;;;19.24;25.78
6395;BME280;3230;42.588;23.358;2023-04-28T06:11:26;91338.56;;;19.93;25.56
6395;BME280;3230;42.588;23.358;2023-04-28T06:13:51;91340.06;;;18.95;26.13
6395;BME280;3230;42.588;23.358;2023-04-28T06:16:17;91340.63;;;19.18;26.48
6395;BME280;3230;42.588;23.358;2023-04-28T06:18:43;91355.75;;;20.17;24.78
6395;BME280;3230;42.588;23.358;2023-04-28T06:21:08;91339.44;;;19.97;24.89
6395;BME280;3230;42.588;23.358;2023-04-28T06:23:34;91342.34;;;19.83;25.07
6395;BME280;3230;42.588;23.358;2023-04-28T06:26:00;91346.28;;;20.07;25.65
6395;BME280;3230;42.588;23.358;2023-04-28T06:28:25;91352.38;;;20.07;25.49
6395;BME280;3230;42.588;23.358;2023-04-28T06:30:51;91350.03;;;20.06;24.67
6395;BME280;3230;42.588;23.358;2023-04-28T06:33:16;91354.72;;;20.85;24.81
6395;BME280;3230;42.588;23.358;2023-04-28T06:35:41;91353.72;;;21.23;23.91
6395;BME280;3230;42.588;23.358;2023-04-28T06:38:07;91350.19;;;20.85;24.11
6395;BME280;3230;42.588;23.358;2023-04-28T06:40:32;91356.38;;;20.77;23.64
6395;BME280;3230;42.588;23.358;2023-04-28T06:42:58;91349.38;;;20.30;24.32
6395;BME280;3230;42.588;23.358;2023-04-28T06:45:23;91353.88;;;21.64;24.21
6395;BME280;3230;42.588;23.358;2023-04-28T06:47:49;91352.63;;;22.11;23.52
6395;BME280;3230;42.588;23.358;2023-04-28T06:50:15;91344.25;;;23.10;22.23
6395;BME280;3230;42.588;23.358;2023-04-28T06:52:40;91341.31;;;23.15;21.98
6395;BME280;3230;42.588;23.358;2023-04-28T06:55:07;91347.22;;;24.01;20.56
6395;BME280;3230;42.588;23.358;2023-04-28T06:57:33;91343.59;;;23.13;21.56
6395;BME280;3230;42.588;23.358;2023-04-28T06:59:59;91340.31;;;23.84;21.08
6395;BME280;3230;42.588;23.358;2023-04-28T07:02:24;91342.97;;;24.16;21.25
6395;BME280;3230;42.588;23.358;2023-04-28T07:04:50;91344.31;;;23.74;21.75
6395;BME280;3230;42.588;23.358;2023-04-28T07:07:15;91355.75;;;22.54;21.93
6395;BME280;3230;42.588;23.358;2023-04-28T07:09:41;91354.84;;;22.90;22.08
6395;BME280;3230;42.588;23.358;2023-04-28T07:12:06;91353.88;;;23.59;21.49
6395;BME280;3230;42.588;23.358;2023-04-28T07:14:32;91349.66;;;22.53;22.27
6395;BME280;3230;42.588;23.358;2023-04-28T07:16:57;91345.56;;;23.16;21.73
6395;BME280;3230;42.588;23.358;2023-04-28T07:19:23;91353.56;;;21.78;22.32
6395;BME280;3230;42.588;23.358;2023-04-28T07:21:48;91353.88;;;23.43;21.35
6395;BME280;3230;42.588;23.358;2023-04-28T07:24:14;91342.31;;;22.78;21.72
6395;BME280;3230;42.588;23.358;2023-04-28T07:26:39;91339.81;;;23.78;21.75
6395;BME280;3230;42.588;23.358;2023-04-28T07:29:05;91350.09;;;23.28;21.32
6395;BME280;3230;42.588;23.358;2023-04-28T07:31:33;91351.88;;;24.04;20.81
6395;BME280;3230;42.588;23.358;2023-04-28T07:33:58;91350.94;;;25.30;20.07
6395;BME280;3230;42.588;23.358;2023-04-28T07:36:24;91355.22;;;24.72;19.94
6395;BME280;3230;42.588;23.358;2023-04-28T07:38:49;91354.16;;;23.54;20.64
6395;BME280;3230;42.588;23.358;2023-04-28T07:41:16;91353.13;;;23.58;21.00
6395;BME280;3230;42.588;23.358;2023-04-28T07:43:41;91355.44;;;23.92;20.72
6395;BME280;3230;42.588;23.358;2023-04-28T07:46:06;91353.22;;;25.08;20.10
6395;BME280;3230;42.588;23.358;2023-04-28T07:48:33;91367.53;;;25.85;19.00
6395;BME280;3230;42.588;23.358;2023-04-28T07:50:59;91348.41;;;24.39;21.49
6395;BME280;3230;42.588;23.358;2023-04-28T07:53:24;91357.25;;;24.98;20.62
6395;BME280;3230;42.588;23.358;2023-04-28T07:55:50;91353.31;;;25.35;19.55
6395;BME280;3230;42.588;23.358;2023-04-28T07:58:15;91364.50;;;24.58;19.75
6395;BME280;3230;42.588;23.358;2023-04-28T08:00:41;91352.41;;;23.29;21.13
6395;BME280;3230;42.588;23.358;2023-04-28T08:03:06;91362.69;;;23.43;21.03
6395;BME280;3230;42.588;23.358;2023-04-28T08:05:32;91364.41;;;24.55;19.79
6395;BME280;3230;42.588;23.358;2023-04-28T08:07:58;91360.88;;;24.31;20.35
6395;BME280;3230;42.588;23.358;2023-04-28T08:10:23;91348.53;;;23.43;21.07
6395;BME280;3230;42.588;23.358;2023-04-28T08:12:50;91361.81;;;23.55;20.62
6395;BME280;3230;42.588;23.358;2023-04-28T08:15:16;91351.31;;;23.46;20.98
6395;BME280;3230;42.588;23.358;2023-04-28T08:17:41;91356.59;;;24.46;21.20
6395;BME280;3230;42.588;23.358;2023-04-28T08:20:07;91360.94;;;24.15;20.46
6395;BME280;3230;42.588;23.358;2023-04-28T08:22:33;91355.06;;;24.84;20.33
6395;BME280;3230;42.588;23.358;2023-04-28T08:24:58;91370.38;;;24.84;20.42
6395;BME280;3230;42.588;23.358;2023-04-28T08:27:24;91364.00;;;23.66;20.76
6395;BME280;3230;42.588;23.358;2023-04-28T08:29:50;91358.31;;;24.54;20.13
6395;BME280;3230;42.588;23.358;2023-04-28T08:32:16;91361.22;;;24.30;20.64
6395;BME280;3230;42.588;23.358;2023-04-28T08:34:41;91359.22;;;24.82;20.44
6395;BME280;3230;42.588;23.358;2023-04-28T08:37:07;91348.34;;;24.00;21.19
6395;BME280;3230;42.588;23.358;2023-04-28T08:39:32;91346.19;;;23.73;20.99
6395;BME280;3230;42.588;23.358;2023-04-28T08:42:02;91354.31;;;24.09;20.88
6395;BME280;3230;42.588;23.358;2023-04-28T08:44:35;91350.25;;;24.35;20.44
6395;BME280;3230;42.588;23.358;2023-04-28T08:47:04;91345.25;;;24.53;20.43
6395;BME280;3230;42.588;23.358;2023-04-28T08:49:35;91354.28;;;25.46;19.74
6395;BME280;3230;42.588;23.358;2023-04-28T08:52:07;91348.19;;;24.83;19.83
6395;BME280;3230;42.588;23.358;2023-04-28T08:54:35;91351.00;;;24.16;20.26
6395;BME280;3230;42.588;23.358;2023-04-28T08:57:02;91347.59;;;23.19;21.65
6395;BME280;3230;42.588;23.358;2023-04-28T08:59:29;91348.94;;;22.84;21.84
6395;BME280;3230;42.588;23.358;2023-04-28T09:01:55;91343.22;;;21.64;22.76
6395;BME280;3230;42.588;23.358;2023-04-28T09:04:21;91339.94;;;21.46;23.14
6395;BME280;3230;42.588;23.358;2023-04-28T09:06:47;91340.22;;;19.68;25.84
6395;BME280;3230;42.588;23.358;2023-04-28T09:09:26;91328.59;;;17.95;26.93
6395;BME280;3230;42.588;23.358;2023-04-28T09:11:55;91327.78;;;16.56;29.49
6395;BME280;3230;42.588;23.358;2023-04-28T09:14:22;91327.25;;;15.99;31.22
6395;BME280;3230;42.588;23.358;2023-04-28T09:16:49;91317.66;;;15.53;31.08
6395;BME280;3230;42.588;23.358;2023-04-28T09:19:16;91315.16;;;14.92;33.25
6395;BME280;3230;42.588;23.358;2023-04-28T09:21:50;91308.47;;;14.01;33.30
6395;BME280;3230;42.588;23.358;2023-04-28T09:27:03;91309.72;;;13.70;35.21
6395;BME280;3230;42.588;23.358;2023-04-28T09:29:32;91306.03;;;13.28;36.42
6395;BME280;3230;42.588;23.358;2023-04-28T09:32:17;91307.13;;;13.03;36.27
6395;BME280;3230;42.588;23.358;2023-04-28T09:34:47;91306.94;;;12.70;36.37
6395;BME280;3230;42.588;23.358;2023-04-28T09:37:17;91312.72;;;12.72;37.24
6395;BME280;3230;42.588;23.358;2023-04-28T09:39:50;91305.53;;;12.77;37.10
6395;BME280;3230;42.588;23.358;2023-04-28T09:45:03;91306.78;;;12.61;37.38
6395;BME280;3230;42.588;23.358;2023-04-28T09:47:29;91306.31;;;12.54;36.82
6395;BME280;3230;42.588;23.358;2023-04-28T09:50:02;91297.47;;;12.44;36.89
6395;BME280;3230;42.588;23.358;2023-04-28T09:52:28;91295.97;;;12.38;37.43
6395;BME280;3230;42.588;23.358;2023-04-28T09:54:54;91292.28;;;12.39;37.38
6395;BME280;3230;42.588;23.358;2023-04-28T09:57:21;91288.88;;;12.39;37.63
6395;BME280;3230;42.588;23.358;2023-04-28T09:59:48;91290.16;;;12.41;37.76
6395;BME280;3230;42.588;23.358;2023-04-28T10:02:16;91285.97;;;12.64;37.12
6395;BME280;3230;42.588;23.358;2023-04-28T10:04:44;91282.63;;;12.59;36.71
6395;BME280;3230;42.588;23.358;2023-04-28T10:07:14;91279.16;;;12.63;38.63
6395;BME280;3230;42.588;23.358;2023-04-28T10:09:41;91279.59;;;12.46;36.90
6395;BME280;3230;42.588;23.358;2023-04-28T10:12:09;91267.50;;;12.70;38.54
6395;BME280;3230;42.588;23.358;2023-04-28T10:14:35;91276.13;;;12.51;37.06
6395;BME280;3230;42.588;23.358;2023-04-28T10:17:03;91266.63;;;12.79;36.73
6395;BME280;3230;42.588;23.358;2023-04-28T10:19:29;91272.31;;;12.87;38.34
6395;BME280;3230;42.588;23.358;2023-04-28T10:22:32;91274.41;;;12.90;37.51
6395;BME280;3230;42.588;23.358;2023-04-28T10:27:41;91267.28;;;12.42;35.31
6395;BME280;3230;42.588;23.358;2023-04-28T10:30:13;91271.44;;;12.72;38.45
6395;BME280;3230;42.588;23.358;2023-04-28T10:32:40;91267.28;;;12.90;36.76
6395;BME280;3230;42.588;23.358;2023-04-28T10:38:12;91256.97;;;12.94;36.23
6395;BME280;3230;42.588;23.358;2023-04-28T10:40:49;91266.44;;;12.95;37.06
6395;BME280;3230;42.588;23.358;2023-04-28T10:43:38;91252.88;;;13.26;36.54
6395;BME280;3230;42.588;23.358;2023-04-28T10:46:09;91257.16;;;13.22;34.99
6395;BME280;3230;42.588;23.358;2023-04-28T10:51:20;91261.44;;;13.37;36.11
6395;BME280;3230;42.588;23.358;2023-04-28T10:54:05;91248.31;;;13.56;35.97
6395;BME280;3230;42.588;23.358;2023-04-28T10:56:31;91240.41;;;13.56;35.22
6395;BME280;3230;42.588;23.358;2023-04-28T10:58:57;91243.47;;;13.44;35.83
6395;BME280;3230;42.588;23.358;2023-04-28T11:01:24;91242.28;;;13.12;35.74
6395;BME280;3230;42.588;23.358;2023-04-28T11:03:51;91248.91;;;13.09;35.76
6395;BME280;3230;42.588;23.358;2023-04-28T11:06:30;91248.09;;;13.09;34.96
6395;BME280;3230;42.588;23.358;2023-04-28T11:16:55;91232.91;;;13.06;37.05
6395;BME280;3230;42.588;23.358;2023-04-28T11:19:28;91230.47;;;12.90;35.33
6395;BME280;3230;42.588;23.358;2023-04-28T11:21:57;91224.66;;;13.12;35.20
6395;BME280;3230;42.588;23.358;2023-04-28T11:24:23;91226.16;;;13.19;34.48
6395;BME280;3230;42.588;23.358;2023-04-28T11:26:50;91227.25;;;13.18;35.27
6395;BME280;3230;42.588;23.358;2023-04-28T11:29:16;91225.16;;;13.34;35.40
6395;BME280;3230;42.588;23.358;2023-04-28T11:31:49;91224.41;;;13.52;36.46
6395;BME280;3230;42.588;23.358;2023-04-28T11:34:19;91223.22;;;13.45;35.92
6395;BME280;3230;42.588;23.358;2023-04-28T11:36:45;91220.16;;;13.32;35.76
6395;BME280;3230;42.588;23.358;2023-04-28T11:39:11;91221.06;;;13.47;36.12
6395;BME280;3230;42.588;23.358;2023-04-28T11:41:41;91217.34;;;13.48;35.26
6395;BME280;3230;42.588;23.358;2023-04-28T11:44:19;91218.50;;;13.41;34.67
6395;BME280;3230;42.588;23.358;2023-04-28T11:46:48;91206.81;;;13.48;34.63
6395;BME280;3230;42.588;23.358;2023-04-28T11:49:21;91209.22;;;13.63;34.77
6395;BME280;3230;42.588;23.358;2023-04-28T11:51:49;91204.69;;;13.50;34.10
6395;BME280;3230;42.588;23.358;2023-04-28T11:54:26;91215.00;;;13.65;34.10
6395;BME280;3230;42.588;23.358;2023-04-28T11:56:53;91206.06;;;13.47;33.54
6395;BME280;3230;42.588;23.358;2023-04-28T11:59:35;91207.41;;;13.45;33.30
6395;BME280;3230;42.588;23.358;2023-04-28T12:02:01;91205.91;;;13.38;33.87
6395;BME280;3230;42.588;23.358;2023-04-28T12:04:29;91201.00;;;13.51;33.93
6395;BME280;3230;42.588;23.358;2023-04-28T12:09:42;91213.16;;;13.27;33.93
6395;BME280;3230;42.588;23.358;2023-04-28T12:12:11;91199.13;;;13.51;32.69
6395;BME280;3230;42.588;23.358;2023-04-28T12:15:00;91202.34;;;13.48;32.42
6395;BME280;3230;42.588;23.358;2023-04-28T12:17:31;91201.63;;;13.62;32.58
6395;BME280;3230;42.588;23.358;2023-04-28T12:19:59;91194.38;;;13.53;31.84
6395;BME280;3230;42.588;23.358;2023-04-28T12:22:25;91194.44;;;13.29;31.41
6395;BME280;3230;42.588;23.358;2023-04-28T12:25:05;91192.09;;;13.27;31.66
6395;BME280;3230;42.588;23.358;2023-04-28T12:27:32;91186.41;;;13.39;31.78
6395;BME280;3230;42.588;23.358;2023-04-28T12:29:58;91183.31;;;13.32;32.06
6395;BME280;3230;42.588;23.358;2023-04-28T12:32:40;91189.88;;;13.54;32.42
6395;BME280;3230;42.588;23.358;2023-04-28T12:35:08;91185.56;;;13.77;33.12
6395;BME280;3230;42.588;23.358;2023-04-28T12:37:33;91183.44;;;13.93;32.51
6395;BME280;3230;42.588;23.358;2023-04-28T12:39:59;91179.50;;;14.10;31.59
6395;BME280;3230;42.588;23.358;2023-04-28T12:42:26;91174.91;;;14.29;31.05
6395;BME280;3230;42.588;23.358;2023-04-28T12:44:51;91169.50;;;13.93;31.21
6395;BME280;3230;42.588;23.358;2023-04-28T12:47:16;91179.34;;;13.87;32.16
6395;BME280;3230;42.588;23.358;2023-04-28T12:49:43;91175.34;;;13.89;31.88
6395;BME280;3230;42.588;23.358;2023-04-28T12:52:09;91170.06;;;13.89;31.09
6395;BME280;3230;42.588;23.358;2023-04-28T12:54:35;91174.38;;;13.85;32.79
6395;BME280;3230;42.588;23.358;2023-04-28T12:57:01;91165.50;;;13.95;33.06
6395;BME280;3230;42.588;23.358;2023-04-28T12:59:27;91164.56;;;14.05;32.91
6395;BME280;3230;42.588;23.358;2023-04-28T13:01:53;91172.47;;;14.05;31.92
6395;BME280;3230;42.588;23.358;2023-04-28T13:04:19;91163.72;;;13.77;32.11
6395;BME280;3230;42.588;23.358;2023-04-28T13:06:45;91166.41;;;13.57;32.37
6395;BME280;3230;42.588;23.358;2023-04-28T13:09:14;91160.88;;;13.73;32.44
6395;BME280;3230;42.588;23.358;2023-04-28T13:11:40;91156.97;;;13.70;32.56
6395;BME280;3230;42.588;23.358;2023-04-28T13:14:06;91149.56;;;13.72;32.24
6395;BME280;3230;42.588;23.358;2023-04-28T13:16:32;91152.91;;;13.78;32.65
6395;BME280;3230;42.588;23.358;2023-04-28T13:18:59;91156.53;;;13.96;31.71
6395;BME280;3230;42.588;23.358;2023-04-28T13:21:25;91154.69;;;13.97;31.69
6395;BME280;3230;42.588;23.358;2023-04-28T13:23:52;91153.91;;;13.96;32.84
6395;BME280;3230;42.588;23.358;2023-04-28T13:26:18;91155.63;;;13.87;32.57
6395;BME280;3230;42.588;23.358;2023-04-28T13:28:46;91155.72;;;13.82;31.78
6395;BME280;3230;42.588;23.358;2023-04-28T13:31:12;91156.84;;;13.95;31.85
6395;BME280;3230;42.588;23.358;2023-04-28T13:33:38;91161.84;;;13.63;33.10
6395;BME280;3230;42.588;23.358;2023-04-28T13:36:04;91157.59;;;13.95;33.23
6395;BME280;3230;42.588;23.358;2023-04-28T13:38:29;91155.28;;;14.07;32.39